sensor_id;sensor_type;location;lat;lon;timestamp;pressure;altitude;pressure_sealevel;temperature;humidity
47706;BME280;33471;52.104;1.318;2023-04-21T00:01:32;101417.78;;;9.90;55.27
47706;BME280;33471;52.104;1.318;2023-04-21T00:03:59;101418.24;;;10.10;53.62
47706;BME280;33471;52.104;1.318;2023-04-21T00:06:26;101410.04;;;10.39;54.15
47706;BME280;33471;52.104;1.318;2023-04-21T00:08:53;101405.39;;;9.76;54.90
47706;BME280;33471;52.104;1.318;2023-04-21T00:11:20;101404.61;;;10.45;53.00
47706;BME280;33471;52.104;1.318;2023-04-21T00:13:47;101398.88;;;9.68;53.23
47706;BME280;33471;52.104;1.318;2023-04-21T00:16:14;101396.71;;;9.80;54.00
47706;BME280;33471;52.104;1.318;2023-04-21T00:18:42;101392.98;;;8.96;56.30
47706;BME280;33471;52.104;1.318;2023-04-21T00:21:09;101389.67;;;9.75;55.51
47706;BME280;33471;52.104;1.318;2023-04-21T00:23:37;101381.03;;;9.56;55.52
47706;BME280;33471;52.104;1.318;2023-04-21T00:26:04;101376.78;;;9.78;54.22
47706;BME280;33471;52.104;1.318;2023-04-21T00:28:31;101374.23;;;10.13;53.58
47706;BME280;33471;52.104;1.318;2023-04-21T00:30:58;101366.57;;;9.47;54.94
47706;BME280;33471;52.104;1.318;2023-04-21T00:33:25;101363.86;;;9.45;55.42
47706;BME280;33471;52.104;1.318;2023-04-21T00:35:52;101364.60;;;9.43;54.63
47706;BME280;33471;52.104;1.318;2023-04-21T00:38:20;101369.34;;;10.35;53.20
47706;BME280;33471;52.104;1.318;2023-04-21T00:40:47;101362.61;;;10.12;52.68
47706;BME280;33471;52.104;1.318;2023-04-21T00:43:14;101358.72;;;10.64;53.38
47706;BME280;33471;52.104;1.318;2023-04-21T00:45:44;101352.84;;;9.66;53.93
47706;BME280;33471;52.104;1.318;2023-04-21T00:48:12;101346.92;;;10.04;52.69
47706;BME280;33471;52.104;1.318;2023-04-21T00:50:39;101342.30;;;10.11;52.55
47706;BME280;33471;52.104;1.318;2023-04-21T00:53:06;101340.06;;;10.82;51.43
47706;BME280;33471;52.104;1.318;2023-04-21T00:55:34;101334.41;;;10.64;51.84
47706;BME280;33471;52.104;1.318;2023-04-21T00:58:02;101329.18;;;11.04;50.81
47706;BME280;33471;52.104;1.318;2023-04-21T01:00:29;101323.99;;;10.13;51.82
47706;BME280;33471;52.104;1.318;2023-04-21T01:02:57;101317.93;;;10.18;50.89
47706;BME280;33471;52.104;1.318;2023-04-21T01:05:25;101314.81;;;10.40;50.92
47706;BME280;33471;52.104;1.318;2023-04-21T01:07:52;101314.58;;;10.28;50.93
47706;BME280;33471;52.104;1.318;2023-04-21T01:10:20;101308.23;;;10.57;50.53
47706;BME280;33471;52.104;1.318;2023-04-21T01:12:48;101306.21;;;9.34;52.80
47706;BME280;33471;52.104;1.318;2023-04-21T01:15:16;101293.82;;;9.34;52.38
47706;BME280;33471;52.104;1.318;2023-04-21T01:17:44;101284.68;;;9.05;54.06
47706;BME280;33471;52.104;1.318;2023-04-21T01:20:13;101280.38;;;9.63;52.39
47706;BME280;33471;52.104;1.318;2023-04-21T01:22:41;101273.81;;;9.64;52.51
47706;BME280;33471;52.104;1.318;2023-04-21T01:25:09;101271.35;;;9.68;52.15
47706;BME280;33471;52.104;1.318;2023-04-21T01:27:36;101270.90;;;10.48;51.42
47706;BME280;33471;52.104;1.318;2023-04-21T01:30:07;101275.09;;;9.15;53.57
47706;BME280;33471;52.104;1.318;2023-04-21T01:32:35;101271.24;;;10.00;52.85
47706;BME280;33471;52.104;1.318;2023-04-21T01:35:03;101272.93;;;9.69;52.61
47706;BME280;33471;52.104;1.318;2023-04-21T01:37:31;101269.53;;;9.62;53.38
47706;BME280;33471;52.104;1.318;2023-04-21T01:40:01;101266.06;;;9.37;53.44
47706;BME280;33471;52.104;1.318;2023-04-21T01:42:29;101262.94;;;9.02;53.63
47706;BME280;33471;52.104;1.318;2023-04-21T01:44:56;101258.41;;;9.18;53.99
47706;BME280;33471;52.104;1.318;2023-04-21T01:47:24;101242.55;;;9.63;53.52
47706;BME280;33471;52.104;1.318;2023-04-21T01:49:51;101240.78;;;10.19;51.55
47706;BME280;33471;52.104;1.318;2023-04-21T01:52:19;101239.12;;;10.53;50.09
47706;BME280;33471;52.104;1.318;2023-04-21T01:54:46;101246.16;;;9.78;51.22
47706;BME280;33471;52.104;1.318;2023-04-21T01:57:14;101250.34;;;10.17;51.00
47706;BME280;33471;52.104;1.318;2023-04-21T01:59:43;101242.14;;;10.73;50.72
47706;BME280;33471;52.104;1.318;2023-04-21T02:02:10;101233.32;;;10.34;50.71
47706;BME280;33471;52.104;1.318;2023-04-21T02:04:37;101229.72;;;10.42;50.99
47706;BME280;33471;52.104;1.318;2023-04-21T02:07:04;101231.32;;;9.83;52.19
47706;BME280;33471;52.104;1.318;2023-04-21T02:09:32;101221.33;;;10.23;52.08
47706;BME280;33471;52.104;1.318;2023-04-21T02:11:59;101219.35;;;10.48;50.23
47706;BME280;33471;52.104;1.318;2023-04-21T02:14:27;101216.33;;;10.57;51.71
47706;BME280;33471;52.104;1.318;2023-04-21T02:16:54;101213.07;;;10.70;50.26
47706;BME280;33471;52.104;1.318;2023-04-21T02:19:21;101207.93;;;10.93;50.31
47706;BME280;33471;52.104;1.318;2023-04-21T02:21:49;101208.08;;;9.80;51.73
47706;BME280;33471;52.104;1.318;2023-04-21T02:24:16;101203.73;;;11.09;49.69
47706;BME280;33471;52.104;1.318;2023-04-21T02:26:44;101201.88;;;11.30;49.10
47706;BME280;33471;52.104;1.318;2023-04-21T02:29:11;101202.31;;;10.81;51.15
47706;BME280;33471;52.104;1.318;2023-04-21T02:31:39;101201.00;;;11.35;50.22
47706;BME280;33471;52.104;1.318;2023-04-21T02:34:06;101198.72;;;11.23;49.99
47706;BME280;33471;52.104;1.318;2023-04-21T02:36:34;101191.93;;;10.83;50.83
47706;BME280;33471;52.104;1.318;2023-04-21T02:39:00;101183.25;;;11.02;50.27
47706;BME280;33471;52.104;1.318;2023-04-21T02:41:27;101181.81;;;10.62;51.65
47706;BME280;33471;52.104;1.318;2023-04-21T02:43:55;101180.51;;;10.91;50.89
47706;BME280;33471;52.104;1.318;2023-04-21T02:46:22;101179.12;;;11.20;49.89
47706;BME280;33471;52.104;1.318;2023-04-21T02:48:50;101176.12;;;10.90;50.53
47706;BME280;33471;52.104;1.318;2023-04-21T02:51:17;101167.61;;;11.50;50.53
47706;BME280;33471;52.104;1.318;2023-04-21T02:53:44;101153.40;;;11.88;49.62
47706;BME280;33471;52.104;1.318;2023-04-21T02:56:11;101159.56;;;10.96;51.30
47706;BME280;33471;52.104;1.318;2023-04-21T02:58:38;101154.98;;;11.61;50.45
47706;BME280;33471;52.104;1.318;2023-04-21T03:01:05;101161.47;;;10.69;53.40
47706;BME280;33471;52.104;1.318;2023-04-21T03:03:32;101158.84;;;11.22;51.56
47706;BME280;33471;52.104;1.318;2023-04-21T03:06:01;101154.62;;;11.03;52.10
47706;BME280;33471;52.104;1.318;2023-04-21T03:08:30;101154.21;;;10.61;52.89
47706;BME280;33471;52.104;1.318;2023-04-21T03:10:58;101149.33;;;11.70;51.41
47706;BME280;33471;52.104;1.318;2023-04-21T03:13:26;101145.22;;;11.73;50.84
47706;BME280;33471;52.104;1.318;2023-04-21T03:15:53;101143.50;;;11.84;51.19
47706;BME280;33471;52.104;1.318;2023-04-21T03:18:20;101144.17;;;11.08;52.33
47706;BME280;33471;52.104;1.318;2023-04-21T03:20:48;101133.64;;;10.97;51.39
47706;BME280;33471;52.104;1.318;2023-04-21T03:23:15;101125.71;;;10.30;53.78
47706;BME280;33471;52.104;1.318;2023-04-21T03:25:42;101125.75;;;11.21;52.00
47706;BME280;33471;52.104;1.318;2023-04-21T03:28:10;101121.72;;;11.90;51.25
47706;BME280;33471;52.104;1.318;2023-04-21T03:30:37;101117.24;;;11.71;51.52
47706;BME280;33471;52.104;1.318;2023-04-21T03:33:04;101114.29;;;11.58;51.32
47706;BME280;33471;52.104;1.318;2023-04-21T03:35:32;101120.02;;;11.23;53.11
47706;BME280;33471;52.104;1.318;2023-04-21T03:37:59;101110.92;;;10.37;53.87
47706;BME280;33471;52.104;1.318;2023-04-21T03:40:26;101108.79;;;10.98;53.62
47706;BME280;33471;52.104;1.318;2023-04-21T03:42:54;101113.34;;;10.42;54.80
47706;BME280;33471;52.104;1.318;2023-04-21T03:45:21;101109.23;;;10.58;54.48
47706;BME280;33471;52.104;1.318;2023-04-21T03:47:52;101101.91;;;9.68;54.78
47706;BME280;33471;52.104;1.318;2023-04-21T03:50:19;101092.69;;;10.90;54.09
47706;BME280;33471;52.104;1.318;2023-04-21T03:52:47;101082.88;;;10.21;52.84
47706;BME280;33471;52.104;1.318;2023-04-21T03:55:14;101085.64;;;10.78;53.72
47706;BME280;33471;52.104;1.318;2023-04-21T03:57:42;101085.48;;;10.53;54.27
47706;BME280;33471;52.104;1.318;2023-04-21T04:00:10;101082.69;;;10.06;54.31
47706;BME280;33471;52.104;1.318;2023-04-21T04:02:37;101081.61;;;10.26;54.85
47706;BME280;33471;52.104;1.318;2023-04-21T04:05:05;101082.92;;;10.68;53.45
47706;BME280;33471;52.104;1.318;2023-04-21T04:07:33;101084.97;;;10.41;54.18
47706;BME280;33471;52.104;1.318;2023-04-21T04:10:00;101073.64;;;10.00;54.58
47706;BME280;33471;52.104;1.318;2023-04-21T04:12:28;101069.13;;;10.17;55.41
47706;BME280;33471;52.104;1.318;2023-04-21T04:14:55;101067.52;;;9.80;55.31
47706;BME280;33471;52.104;1.318;2023-04-21T04:17:23;101065.72;;;9.18;57.07
47706;BME280;33471;52.104;1.318;2023-04-21T04:19:50;101071.78;;;10.00;54.46
47706;BME280;33471;52.104;1.318;2023-04-21T04:22:18;101073.53;;;10.09;55.91
47706;BME280;33471;52.104;1.318;2023-04-21T04:24:46;101067.20;;;9.41;54.92
47706;BME280;33471;52.104;1.318;2023-04-21T04:27:12;101064.61;;;9.69;54.88
47706;BME280;33471;52.104;1.318;2023-04-21T04:29:40;101059.72;;;9.78;55.19
47706;BME280;33471;52.104;1.318;2023-04-21T04:32:07;101060.08;;;9.26;55.96
47706;BME280;33471;52.104;1.318;2023-04-21T04:34:34;101056.90;;;10.53;53.61
47706;BME280;33471;52.104;1.318;2023-04-21T04:37:01;101055.36;;;10.74;52.44
47706;BME280;33471;52.104;1.318;2023-04-21T04:39:30;101052.59;;;10.87;52.16
47706;BME280;33471;52.104;1.318;2023-04-21T04:41:57;101042.03;;;10.90;52.09
47706;BME280;33471;52.104;1.318;2023-04-21T04:44:23;101035.92;;;11.33;51.88
47706;BME280;33471;52.104;1.318;2023-04-21T04:46:50;101027.46;;;11.56;50.76
47706;BME280;33471;52.104;1.318;2023-04-21T04:49:18;101018.39;;;11.27;50.88
47706;BME280;33471;52.104;1.318;2023-04-21T04:51:46;101020.78;;;11.54;50.16
47706;BME280;33471;52.104;1.318;2023-04-21T04:54:12;101022.52;;;10.65;51.31
47706;BME280;33471;52.104;1.318;2023-04-21T04:56:39;101031.17;;;10.15;52.56
47706;BME280;33471;52.104;1.318;2023-04-21T04:59:07;101025.04;;;11.12;50.72
47706;BME280;33471;52.104;1.318;2023-04-21T05:01:34;101019.95;;;10.43;51.88
47706;BME280;33471;52.104;1.318;2023-04-21T05:04:01;101013.93;;;10.20;51.66
47706;BME280;33471;52.104;1.318;2023-04-21T05:06:28;101013.72;;;9.90;52.85
47706;BME280;33471;52.104;1.318;2023-04-21T05:08:55;101015.58;;;10.21;51.71
47706;BME280;33471;52.104;1.318;2023-04-21T05:11:22;101004.80;;;10.10;52.01
47706;BME280;33471;52.104;1.318;2023-04-21T05:13:50;101002.92;;;10.08;51.16
47706;BME280;33471;52.104;1.318;2023-04-21T05:16:17;101002.60;;;10.09;51.10
47706;BME280;33471;52.104;1.318;2023-04-21T05:18:45;101001.73;;;10.04;50.64
47706;BME280;33471;52.104;1.318;2023-04-21T05:21:13;100998.29;;;10.61;50.76
47706;BME280;33471;52.104;1.318;2023-04-21T05:23:41;101001.45;;;11.13;49.47
47706;BME280;33471;52.104;1.318;2023-04-21T05:26:08;101003.84;;;10.72;50.04
47706;BME280;33471;52.104;1.318;2023-04-21T05:28:35;101009.00;;;10.14;51.52
47706;BME280;33471;52.104;1.318;2023-04-21T05:31:02;101004.75;;;11.06;49.62
47706;BME280;33471;52.104;1.318;2023-04-21T05:33:29;101001.50;;;11.17;49.66
47706;BME280;33471;52.104;1.318;2023-04-21T05:35:56;100996.92;;;11.55;49.60
47706;BME280;33471;52.104;1.318;2023-04-21T05:38:24;100987.25;;;11.67;49.37
47706;BME280;33471;52.104;1.318;2023-04-21T05:40:52;100985.57;;;11.43;48.78
47706;BME280;33471;52.104;1.318;2023-04-21T05:43:20;100991.49;;;11.45;48.83
47706;BME280;33471;52.104;1.318;2023-04-21T05:45:48;100993.21;;;11.05;48.86
47706;BME280;33471;52.104;1.318;2023-04-21T05:48:15;100990.32;;;11.30;49.56
47706;BME280;33471;52.104;1.318;2023-04-21T05:50:43;100988.37;;;11.86;48.99
47706;BME280;33471;52.104;1.318;2023-04-21T05:53:10;100991.53;;;11.77;48.76
47706;BME280;33471;52.104;1.318;2023-04-21T05:55:38;100989.33;;;11.65;48.83
47706;BME280;33471;52.104;1.318;2023-04-21T05:58:05;100989.21;;;11.61;48.92
47706;BME280;33471;52.104;1.318;2023-04-21T06:00:33;100989.44;;;11.50;49.02
47706;BME280;33471;52.104;1.318;2023-04-21T06:03:00;100982.69;;;11.18;48.82
47706;BME280;33471;52.104;1.318;2023-04-21T06:05:28;100978.48;;;11.12;49.78
47706;BME280;33471;52.104;1.318;2023-04-21T06:07:55;100977.77;;;11.19;49.26
47706;BME280;33471;52.104;1.318;2023-04-21T06:10:23;100975.48;;;11.13;49.51
47706;BME280;33471;52.104;1.318;2023-04-21T06:12:50;100977.78;;;10.45;48.57
47706;BME280;33471;52.104;1.318;2023-04-21T06:15:18;100980.91;;;11.98;47.49
47706;BME280;33471;52.104;1.318;2023-04-21T06:17:45;100983.99;;;12.05;47.66
47706;BME280;33471;52.104;1.318;2023-04-21T06:20:22;100978.95;;;10.44;46.98
47706;BME280;33471;52.104;1.318;2023-04-21T06:22:50;100972.99;;;12.58;46.19
47706;BME280;33471;52.104;1.318;2023-04-21T06:25:17;100970.85;;;12.69;46.33
47706;BME280;33471;52.104;1.318;2023-04-21T06:27:45;100965.93;;;12.59;46.00
47706;BME280;33471;52.104;1.318;2023-04-21T06:30:13;100965.20;;;12.55;46.57
47706;BME280;33471;52.104;1.318;2023-04-21T06:32:40;100966.63;;;11.65;47.68
47706;BME280;33471;52.104;1.318;2023-04-21T06:35:08;100964.26;;;12.11;47.73
47706;BME280;33471;52.104;1.318;2023-04-21T06:37:35;100962.33;;;12.00;47.80
47706;BME280;33471;52.104;1.318;2023-04-21T06:40:03;100961.43;;;12.07;47.10
47706;BME280;33471;52.104;1.318;2023-04-21T06:42:31;100958.10;;;12.20;46.69
47706;BME280;33471;52.104;1.318;2023-04-21T06:44:58;100956.89;;;11.81;47.40
47706;BME280;33471;52.104;1.318;2023-04-21T06:47:25;100957.38;;;11.71;48.48
47706;BME280;33471;52.104;1.318;2023-04-21T06:49:52;100958.00;;;12.05;47.78
47706;BME280;33471;52.104;1.318;2023-04-21T06:52:20;100957.19;;;12.14;47.89
47706;BME280;33471;52.104;1.318;2023-04-21T06:54:47;100957.37;;;11.40;48.73
47706;BME280;33471;52.104;1.318;2023-04-21T06:57:14;100954.81;;;11.50;48.29
47706;BME280;33471;52.104;1.318;2023-04-21T06:59:42;100952.19;;;11.96;48.15
47706;BME280;33471;52.104;1.318;2023-04-21T07:02:08;100950.68;;;11.81;48.22
47706;BME280;33471;52.104;1.318;2023-04-21T07:04:36;100947.93;;;11.98;47.76
47706;BME280;33471;52.104;1.318;2023-04-21T07:07:03;100944.72;;;12.39;47.39
47706;BME280;33471;52.104;1.318;2023-04-21T07:09:30;100938.54;;;12.65;47.91
47706;BME280;33471;52.104;1.318;2023-04-21T07:11:57;100939.00;;;12.73;47.12
47706;BME280;33471;52.104;1.318;2023-04-21T07:14:24;100944.18;;;12.47;47.70
47706;BME280;33471;52.104;1.318;2023-04-21T07:16:52;100944.50;;;12.25;47.71
47706;BME280;33471;52.104;1.318;2023-04-21T07:19:19;100941.46;;;12.69;47.19
47706;BME280;33471;52.104;1.318;2023-04-21T07:21:46;100935.77;;;12.88;46.51
47706;BME280;33471;52.104;1.318;2023-04-21T07:24:14;100933.99;;;13.27;46.33
47706;BME280;33471;52.104;1.318;2023-04-21T07:26:41;100936.64;;;12.67;47.11
47706;BME280;33471;52.104;1.318;2023-04-21T07:29:08;100938.76;;;12.99;46.38
47706;BME280;33471;52.104;1.318;2023-04-21T07:31:35;100943.90;;;12.64;47.99
47706;BME280;33471;52.104;1.318;2023-04-21T07:34:02;100948.43;;;11.37;49.10
47706;BME280;33471;52.104;1.318;2023-04-21T07:36:29;100947.87;;;12.16;49.01
47706;BME280;33471;52.104;1.318;2023-04-21T07:38:56;100946.54;;;10.57;49.23
47706;BME280;33471;52.104;1.318;2023-04-21T07:41:24;100945.65;;;12.12;48.30
47706;BME280;33471;52.104;1.318;2023-04-21T07:43:51;100940.16;;;12.18;48.34
47706;BME280;33471;52.104;1.318;2023-04-21T07:46:19;100937.63;;;12.54;48.66
47706;BME280;33471;52.104;1.318;2023-04-21T07:48:46;100943.43;;;12.25;48.15
47706;BME280;33471;52.104;1.318;2023-04-21T07:51:13;100945.56;;;12.77;47.70
47706;BME280;33471;52.104;1.318;2023-04-21T07:53:40;100945.81;;;11.99;48.97
47706;BME280;33471;52.104;1.318;2023-04-21T07:56:08;100944.29;;;11.48;49.74
47706;BME280;33471;52.104;1.318;2023-04-21T07:58:35;100947.56;;;10.63;51.13
47706;BME280;33471;52.104;1.318;2023-04-21T08:01:03;100954.09;;;10.55;51.87
47706;BME280;33471;52.104;1.318;2023-04-21T08:03:30;100954.25;;;11.10;50.39
47706;BME280;33471;52.104;1.318;2023-04-21T08:05:57;100956.68;;;11.25;50.05
47706;BME280;33471;52.104;1.318;2023-04-21T08:08:24;100956.75;;;11.35;50.15
47706;BME280;33471;52.104;1.318;2023-04-21T08:10:52;100953.92;;;10.89;49.71
47706;BME280;33471;52.104;1.318;2023-04-21T08:13:20;100960.69;;;11.27;50.18
47706;BME280;33471;52.104;1.318;2023-04-21T08:15:47;100958.89;;;11.01;50.47
47706;BME280;33471;52.104;1.318;2023-04-21T08:18:14;100958.70;;;11.29;49.79
47706;BME280;33471;52.104;1.318;2023-04-21T08:20:41;100962.75;;;11.77;49.08
47706;BME280;33471;52.104;1.318;2023-04-21T08:23:08;100961.65;;;11.60;49.27
47706;BME280;33471;52.104;1.318;2023-04-21T08:25:35;100961.59;;;10.40;51.83
47706;BME280;33471;52.104;1.318;2023-04-21T08:28:02;100962.18;;;11.07;49.46
47706;BME280;33471;52.104;1.318;2023-04-21T08:30:29;100964.03;;;11.10;50.29
47706;BME280;33471;52.104;1.318;2023-04-21T08:32:56;100964.27;;;11.17;49.33
47706;BME280;33471;52.104;1.318;2023-04-21T08:35:23;100965.50;;;11.93;49.56
47706;BME280;33471;52.104;1.318;2023-04-21T08:37:51;100963.43;;;12.12;49.53
47706;BME280;33471;52.104;1.318;2023-04-21T08:40:18;100965.90;;;11.75;50.07
47706;BME280;33471;52.104;1.318;2023-04-21T08:42:47;100968.64;;;12.17;49.60
47706;BME280;33471;52.104;1.318;2023-04-21T08:45:14;100965.52;;;12.24;50.18
47706;BME280;33471;52.104;1.318;2023-04-21T08:47:41;100968.13;;;12.38;50.87
47706;BME280;33471;52.104;1.318;2023-04-21T08:50:12;100967.28;;;11.73;51.44
47706;BME280;33471;52.104;1.318;2023-04-21T08:52:40;100968.76;;;12.04;49.97
47706;BME280;33471;52.104;1.318;2023-04-21T08:55:07;100967.06;;;12.00;51.37
47706;BME280;33471;52.104;1.318;2023-04-21T08:57:35;100962.53;;;12.17;50.87
47706;BME280;33471;52.104;1.318;2023-04-21T09:00:03;100967.05;;;11.69;51.53
47706;BME280;33471;52.104;1.318;2023-04-21T09:02:30;100967.29;;;11.22;51.84
47706;BME280;33471;52.104;1.318;2023-04-21T09:04:57;100967.15;;;10.64;52.92
47706;BME280;33471;52.104;1.318;2023-04-21T09:07:31;100968.86;;;11.44;51.92
47706;BME280;33471;52.104;1.318;2023-04-21T09:09:59;100965.88;;;10.30;52.09
47706;BME280;33471;52.104;1.318;2023-04-21T09:12:27;100970.82;;;10.63;53.66
47706;BME280;33471;52.104;1.318;2023-04-21T09:14:55;100967.32;;;10.70;53.13
47706;BME280;33471;52.104;1.318;2023-04-21T09:17:27;100970.62;;;11.68;51.97
47706;BME280;33471;52.104;1.318;2023-04-21T09:19:55;100976.30;;;11.54;49.36
47706;BME280;33471;52.104;1.318;2023-04-21T09:22:26;100976.33;;;12.51;48.99
47706;BME280;33471;52.104;1.318;2023-04-21T09:24:57;100978.98;;;12.32;48.89
47706;BME280;33471;52.104;1.318;2023-04-21T09:27:25;100974.73;;;11.63;49.44
47706;BME280;33471;52.104;1.318;2023-04-21T09:29:53;100977.18;;;11.83;48.69
47706;BME280;33471;52.104;1.318;2023-04-21T09:32:20;100978.02;;;12.44;49.14
47706;BME280;33471;52.104;1.318;2023-04-21T09:34:48;100980.48;;;12.23;49.91
47706;BME280;33471;52.104;1.318;2023-04-21T09:37:15;100981.42;;;11.42;49.63
47706;BME280;33471;52.104;1.318;2023-04-21T09:39:45;100982.03;;;12.20;48.67
47706;BME280;33471;52.104;1.318;2023-04-21T09:42:12;100981.50;;;12.28;48.90
47706;BME280;33471;52.104;1.318;2023-04-21T09:44:40;100983.65;;;11.79;48.82
47706;BME280;33471;52.104;1.318;2023-04-21T09:47:09;100985.05;;;12.24;47.83
47706;BME280;33471;52.104;1.318;2023-04-21T09:49:38;100985.95;;;11.79;49.84
47706;BME280;33471;52.104;1.318;2023-04-21T09:52:11;100983.02;;;10.69;51.12
47706;BME280;33471;52.104;1.318;2023-04-21T09:54:46;100980.76;;;11.47;51.26
47706;BME280;33471;52.104;1.318;2023-04-21T09:57:20;100976.87;;;10.95;51.13
47706;BME280;33471;52.104;1.318;2023-04-21T09:59:53;100983.66;;;11.21;50.01
47706;BME280;33471;52.104;1.318;2023-04-21T10:02:24;100980.52;;;11.77;50.39
47706;BME280;33471;52.104;1.318;2023-04-21T10:04:51;100984.80;;;11.92;51.46
47706;BME280;33471;52.104;1.318;2023-04-21T10:07:19;100986.91;;;12.17;49.60
47706;BME280;33471;52.104;1.318;2023-04-21T10:09:49;100984.21;;;12.66;47.79
47706;BME280;33471;52.104;1.318;2023-04-21T10:12:18;100984.79;;;13.44;47.57
47706;BME280;33471;52.104;1.318;2023-04-21T10:14:47;100991.54;;;13.02;47.27
47706;BME280;33471;52.104;1.318;2023-04-21T10:17:16;100989.46;;;13.15;47.98
47706;BME280;33471;52.104;1.318;2023-04-21T10:19:49;100989.91;;;13.23;48.00
47706;BME280;33471;52.104;1.318;2023-04-21T10:22:26;100988.17;;;13.32;47.93
47706;BME280;33471;52.104;1.318;2023-04-21T10:24:56;100988.40;;;12.32;46.96
47706;BME280;33471;52.104;1.318;2023-04-21T10:27:32;100983.78;;;13.79;46.33
47706;BME280;33471;52.104;1.318;2023-04-21T10:30:00;100981.88;;;13.66;46.89
47706;BME280;33471;52.104;1.318;2023-04-21T10:32:38;100979.02;;;13.28;46.52
47706;BME280;33471;52.104;1.318;2023-04-21T10:35:08;100982.20;;;13.08;45.43
47706;BME280;33471;52.104;1.318;2023-04-21T10:37:36;100985.88;;;13.53;46.95
47706;BME280;33471;52.104;1.318;2023-04-21T10:40:04;100975.58;;;13.09;46.67
47706;BME280;33471;52.104;1.318;2023-04-21T10:42:34;100975.85;;;13.10;46.00
47706;BME280;33471;52.104;1.318;2023-04-21T10:45:07;100979.69;;;12.93;45.99
47706;BME280;33471;52.104;1.318;2023-04-21T10:47:36;100980.93;;;12.62;46.16
47706;BME280;33471;52.104;1.318;2023-04-21T10:50:14;100979.78;;;12.76;47.46
47706;BME280;33471;52.104;1.318;2023-04-21T10:52:46;100981.92;;;11.92;47.33
47706;BME280;33471;52.104;1.318;2023-04-21T10:55:17;100978.38;;;12.60;46.13
47706;BME280;33471;52.104;1.318;2023-04-21T10:57:45;100977.79;;;12.91;45.75
47706;BME280;33471;52.104;1.318;2023-04-21T11:00:16;100974.47;;;14.14;45.63
47706;BME280;33471;52.104;1.318;2023-04-21T11:02:44;100967.81;;;13.58;43.74
47706;BME280;33471;52.104;1.318;2023-04-21T11:05:19;100962.83;;;13.84;43.12
47706;BME280;33471;52.104;1.318;2023-04-21T11:07:46;100960.18;;;14.39;45.29
47706;BME280;33471;52.104;1.318;2023-04-21T11:10:14;100955.39;;;13.73;41.01
47706;BME280;33471;52.104;1.318;2023-04-21T11:12:41;100948.15;;;13.41;40.82
47706;BME280;33471;52.104;1.318;2023-04-21T11:15:10;100956.25;;;12.68;43.02
47706;BME280;33471;52.104;1.318;2023-04-21T11:17:38;100944.44;;;12.68;44.03
47706;BME280;33471;52.104;1.318;2023-04-21T11:20:06;100947.34;;;13.20;42.01
47706;BME280;33471;52.104;1.318;2023-04-21T11:22:35;100949.52;;;13.17;42.79
47706;BME280;33471;52.104;1.318;2023-04-21T11:25:04;100946.38;;;13.87;40.94
47706;BME280;33471;52.104;1.318;2023-04-21T11:27:31;100943.78;;;14.46;41.07
47706;BME280;33471;52.104;1.318;2023-04-21T11:30:02;100944.60;;;13.46;41.43
47706;BME280;33471;52.104;1.318;2023-04-21T11:32:30;100944.23;;;14.50;40.00
47706;BME280;33471;52.104;1.318;2023-04-21T11:34:57;100942.45;;;14.18;40.73
47706;BME280;33471;52.104;1.318;2023-04-21T11:37:25;100944.20;;;15.00;39.67
47706;BME280;33471;52.104;1.318;2023-04-21T11:39:56;100944.65;;;14.01;39.74
47706;BME280;33471;52.104;1.318;2023-04-21T11:42:24;100945.54;;;15.22;40.39
47706;BME280;33471;52.104;1.318;2023-04-21T11:44:54;100942.85;;;14.49;39.35
47706;BME280;33471;52.104;1.318;2023-04-21T11:47:22;100939.69;;;14.62;38.39
47706;BME280;33471;52.104;1.318;2023-04-21T11:49:52;100934.98;;;15.32;40.70
47706;BME280;33471;52.104;1.318;2023-04-21T11:52:21;100931.66;;;15.39;40.36
47706;BME280;33471;52.104;1.318;2023-04-21T11:54:56;100936.79;;;15.82;38.93
47706;BME280;33471;52.104;1.318;2023-04-21T11:57:25;100937.48;;;15.23;38.08
47706;BME280;33471;52.104;1.318;2023-04-21T11:59:57;100938.41;;;14.23;39.25
47706;BME280;33471;52.104;1.318;2023-04-21T12:02:25;100940.82;;;15.54;39.58
47706;BME280;33471;52.104;1.318;2023-04-21T12:05:02;100940.85;;;15.07;38.59
47706;BME280;33471;52.104;1.318;2023-04-21T12:07:31;100939.73;;;15.25;37.76
47706;BME280;33471;52.104;1.318;2023-04-21T12:09:59;100945.39;;;13.98;40.35
47706;BME280;33471;52.104;1.318;2023-04-21T12:12:26;100941.39;;;12.63;41.42
47706;BME280;33471;52.104;1.318;2023-04-21T12:14:54;100939.35;;;13.20;42.16
47706;BME280;33471;52.104;1.318;2023-04-21T12:17:21;100938.79;;;14.67;39.57
47706;BME280;33471;52.104;1.318;2023-04-21T12:19:48;100947.26;;;14.46;40.04
47706;BME280;33471;52.104;1.318;2023-04-21T12:22:16;100946.73;;;14.53;38.81
47706;BME280;33471;52.104;1.318;2023-04-21T12:24:44;100938.95;;;14.42;38.61
47706;BME280;33471;52.104;1.318;2023-04-21T12:27:12;100940.04;;;14.79;38.46
47706;BME280;33471;52.104;1.318;2023-04-21T12:29:41;100935.67;;;14.51;39.42
47706;BME280;33471;52.104;1.318;2023-04-21T12:32:08;100934.49;;;15.70;38.60
47706;BME280;33471;52.104;1.318;2023-04-21T12:34:36;100940.91;;;16.01;38.08
47706;BME280;33471;52.104;1.318;2023-04-21T12:37:03;100936.82;;;16.35;38.48
47706;BME280;33471;52.104;1.318;2023-04-21T12:39:31;100938.29;;;16.59;36.75
47706;BME280;33471;52.104;1.318;2023-04-21T12:41:58;100935.93;;;16.33;35.12
47706;BME280;33471;52.104;1.318;2023-04-21T12:44:25;100925.19;;;17.09;35.47
47706;BME280;33471;52.104;1.318;2023-04-21T12:46:53;100933.09;;;16.65;35.32
47706;BME280;33471;52.104;1.318;2023-04-21T12:49:20;100933.73;;;17.17;34.22
47706;BME280;33471;52.104;1.318;2023-04-21T12:51:48;100929.35;;;17.09;34.13
47706;BME280;33471;52.104;1.318;2023-04-21T12:54:15;100929.86;;;16.41;34.97